Time;durP1;ratioP1;P1;durP2;ratioP2;P2;SDS_P1;SDS_P2;PMS_P1;PMS_P2;Temp;Humidity;BMP_temperature;BMP_pressure;BME280_temperature;BME280_humidity;BME280_pressure;Samples;Min_cycle;Max_cycle;Signal;HPM_P1;HPM_P2
2021/03/08 00:01:30;;;;;;;;;;;;;;;6.62;37.07;101747.19;4839493;29;19938;-78
2021/03/08 00:03:57;;;;;;;;;;;;;;;6.59;36.76;101745.41;4847605;29;19939;-78
2021/03/08 00:06:24;;;;;;;;;;;;;;;6.58;36.80;101748.00;4842990;29;20069;-77
2021/03/08 00:08:52;;;;;;;;;;;;;;;6.53;37.11;101755.88;4860648;29;19937;-78
2021/03/08 00:11:18;;;;;;;;;;;;;;;6.51;37.16;101749.72;4843928;29;19928;-78
2021/03/08 00:13:45;;;;;;;;;;;;;;;6.46;37.18;101751.44;4864719;29;19928;-77
2021/03/08 00:16:12;;;;;;;;;;;;;;;6.42;37.15;101752.31;4862286;29;19966;-77
2021/03/08 00:18:39;;;;;;;;;;;;;;;6.37;37.38;101756.66;4861080;29;20004;-78
2021/03/08 00:21:06;;;;;;;;;;;;;;;6.36;37.26;101753.16;4862055;29;19954;-77
2021/03/08 00:23:33;;;;;;;;;;;;;;;6.36;37.11;101761.03;4843905;29;19939;-77
2021/03/08 00:26:01;;;;;;;;;;;;;;;6.31;37.10;101760.13;4862375;29;19939;-77
2021/03/08 00:28:28;;;;;;;;;;;;;;;6.30;37.28;101761.91;4862596;29;19936;-77
2021/03/08 00:30:54;;;;;;;;;;;;;;;6.28;37.37;101763.63;4841063;29;19991;-77
2021/03/08 00:33:22;;;;;;;;;;;;;;;6.22;37.39;101760.94;4846535;29;19928;-77
2021/03/08 00:35:49;;;;;;;;;;;;;;;6.23;37.59;101769.72;4860012;29;19936;-77
2021/03/08 00:38:16;;;;;;;;;;;;;;;6.17;37.46;101773.16;4844804;29;19960;-78
2021/03/08 00:40:43;;;;;;;;;;;;;;;6.14;37.53;101774.03;4845467;29;20444;-77
2021/03/08 00:43:11;;;;;;;;;;;;;;;6.12;37.51;101769.63;4862010;29;20031;-78
2021/03/08 00:45:38;;;;;;;;;;;;;;;6.10;37.70;101779.25;4845670;29;19935;-78
2021/03/08 00:48:07;;;;;;;;;;;;;;;6.09;37.54;101783.66;4843172;29;19935;-78
2021/03/08 00:50:38;;;;;;;;;;;;;;;6.01;37.71;101780.06;4841841;29;19935;-78
2021/03/08 00:53:08;;;;;;;;;;;;;;;6.01;37.56;101779.19;4841905;29;20035;-77
2021/03/08 00:55:40;;;;;;;;;;;;;;;5.98;37.71;101774.78;4845068;29;19936;-78
2021/03/08 00:58:06;;;;;;;;;;;;;;;5.95;37.42;101767.72;4848950;29;19959;-77
2021/03/08 01:00:34;;;;;;;;;;;;;;;5.90;37.79;101774.69;4844770;29;20000;-77
2021/03/08 01:03:05;;;;;;;;;;;;;;;5.88;37.47;101775.53;4860837;29;19940;-77
2021/03/08 01:05:34;;;;;;;;;;;;;;;5.84;37.60;101779.00;4843332;29;19928;-77
2021/03/08 01:08:08;;;;;;;;;;;;;;;5.80;37.83;101775.47;4844686;29;19932;-77
2021/03/08 01:10:38;;;;;;;;;;;;;;;5.78;37.89;101777.22;4848987;29;19953;-77
2021/03/08 01:13:17;;;;;;;;;;;;;;;5.74;37.63;101776.31;4844767;29;19936;-77
2021/03/08 01:15:50;;;;;;;;;;;;;;;5.71;37.72;101781.50;4845100;29;20568;-78
2021/03/08 01:18:18;;;;;;;;;;;;;;;5.71;37.62;101781.50;4856659;29;19928;-78
2021/03/08 01:20:46;;;;;;;;;;;;;;;5.67;37.75;101777.09;4852856;29;19936;-78
2021/03/08 01:23:13;;;;;;;;;;;;;;;5.62;38.05;101777.06;4846590;29;19988;-78
2021/03/08 01:25:40;;;;;;;;;;;;;;;5.62;37.82;101779.69;4859669;29;19939;-78
2021/03/08 01:28:07;;;;;;;;;;;;;;;5.57;37.90;101780.50;4846118;29;19928;-78
2021/03/08 01:30:36;;;;;;;;;;;;;;;5.56;38.08;101782.25;4843291;29;19999;-78
2021/03/08 01:33:04;;;;;;;;;;;;;;;5.51;37.89;101777.84;4857240;29;21034;-77
2021/03/08 01:35:32;;;;;;;;;;;;;;;5.45;38.19;101773.38;4858821;29;19928;-77
2021/03/08 01:37:59;;;;;;;;;;;;;;;5.44;38.02;101771.66;4842083;29;19939;-78
2021/03/08 01:40:27;;;;;;;;;;;;;;;5.42;37.98;101773.38;4856746;29;19928;-78
2021/03/08 01:42:54;;;;;;;;;;;;;;;5.41;37.98;101769.88;4859966;29;19938;-78
2021/03/08 01:45:22;;;;;;;;;;;;;;;5.41;37.78;101774.22;4853852;29;20744;-77
2021/03/08 01:47:49;;;;;;;;;;;;;;;5.41;37.95;101775.13;4854784;29;19935;-78
2021/03/08 01:50:19;;;;;;;;;;;;;;;5.42;37.85;101776.84;4845631;29;19939;-77
2021/03/08 01:52:46;;;;;;;;;;;;;;;5.41;38.03;101776.84;4860276;29;20394;-78
2021/03/08 01:55:13;;;;;;;;;;;;;;;5.42;37.75;101779.47;4859000;29;19957;-78
2021/03/08 01:57:40;;;;;;;;;;;;;;;5.41;37.84;101769.88;4864478;29;19994;-78
2021/03/08 02:00:20;;;;;;;;;;;;;;;5.42;38.10;101771.59;4857787;29;19932;-78
2021/03/08 02:02:47;;;;;;;;;;;;;;;5.43;38.06;101769.88;4855925;29;19978;-78
2021/03/08 02:05:16;;;;;;;;;;;;;;;5.42;37.93;101776.00;4861440;29;19979;-79
2021/03/08 02:07:44;;;;;;;;;;;;;;;5.41;37.72;101782.09;4855145;29;19943;-77
2021/03/08 02:10:12;;;;;;;;;;;;;;;5.39;38.14;101779.47;4862635;29;19932;-78
2021/03/08 02:12:44;;;;;;;;;;;;;;;5.37;38.06;101778.56;4854893;29;19928;-78
2021/03/08 02:15:17;;;;;;;;;;;;;;;5.34;38.09;101781.16;4851650;29;20585;-78
2021/03/08 02:17:48;;;;;;;;;;;;;;;5.33;37.76;101784.63;4835789;29;21802;-77
2021/03/08 02:20:45;;;;;;;;;;;;;;;5.32;37.96;101788.13;4859212;29;19936;-77
2021/03/08 02:23:31;;;;;;;;;;;;;;;5.30;37.69;101785.47;4800355;29;19933;-76
2021/03/08 02:26:10;;;;;;;;;;;;;;;5.28;37.62;101786.34;4849212;29;19928;-77
2021/03/08 02:29:02;;;;;;;;;;;;;;;5.25;37.77;101784.56;4854676;29;19931;-78
2021/03/08 02:31:32;;;;;;;;;;;;;;;5.23;38.12;101793.28;4856314;29;19933;-78
2021/03/08 02:34:02;;;;;;;;;;;;;;;5.22;37.62;101792.38;4860441;29;19935;-77
2021/03/08 02:36:33;;;;;;;;;;;;;;;5.20;38.11;101790.59;4862166;29;19928;-77
2021/03/08 02:39:01;;;;;;;;;;;;;;;5.17;38.02;101788.84;4846835;29;19936;-77
2021/03/08 02:41:30;;;;;;;;;;;;;;;5.15;37.93;101794.06;4850949;29;20462;-78
2021/03/08 02:44:00;;;;;;;;;;;;;;;5.13;37.93;101789.66;4856073;29;19939;-77
2021/03/08 02:46:28;;;;;;;;;;;;;;;5.11;38.08;101789.66;4857768;29;19947;-78
2021/03/08 02:48:57;;;;;;;;;;;;;;;5.09;37.80;101801.84;4857219;29;20035;-77
2021/03/08 02:51:25;;;;;;;;;;;;;;;5.07;38.08;101793.09;4841750;29;19936;-78
2021/03/08 02:53:56;;;;;;;;;;;;;;;5.03;38.33;101793.94;4860180;29;19967;-76
2021/03/08 02:56:24;;;;;;;;;;;;;;;5.00;37.82;101791.25;4843364;29;19968;-77
2021/03/08 02:58:52;;;;;;;;;;;;;;;5.01;38.10;101797.41;4857876;29;21042;-77
2021/03/08 03:01:19;;;;;;;;;;;;;;;5.00;38.21;101801.75;4845201;29;19928;-77
2021/03/08 03:03:49;;;;;;;;;;;;;;;4.97;37.97;101807.81;4864825;29;19932;-78
2021/03/08 03:06:18;;;;;;;;;;;;;;;4.97;37.99;101802.56;4854895;29;19935;-78
2021/03/08 03:08:46;;;;;;;;;;;;;;;4.98;37.68;101798.25;4857828;29;19936;-77
2021/03/08 03:11:13;;;;;;;;;;;;;;;4.98;37.76;101803.47;4853907;29;19932;-78
2021/03/08 03:13:42;;;;;;;;;;;;;;;4.99;38.07;101803.50;4858072;29;19952;-77
2021/03/08 03:16:10;;;;;;;;;;;;;;;5.00;38.08;101801.75;4859847;29;19935;-77
2021/03/08 03:18:37;;;;;;;;;;;;;;;5.02;38.19;101794.78;4858817;29;19932;-77
2021/03/08 03:21:06;;;;;;;;;;;;;;;5.02;38.13;101804.38;4845788;29;19947;-77
2021/03/08 03:23:38;;;;;;;;;;;;;;;5.04;37.72;101803.53;4844768;29;20008;-77
2021/03/08 03:26:05;;;;;;;;;;;;;;;5.05;37.95;101797.44;4853102;29;19976;-76
2021/03/08 03:28:33;;;;;;;;;;;;;;;5.05;37.60;101797.44;4857531;29;19942;-77
2021/03/08 03:31:00;;;;;;;;;;;;;;;5.04;37.40;101795.66;4858327;29;19999;-78
2021/03/08 03:33:27;;;;;;;;;;;;;;;5.05;37.72;101802.69;4844434;29;19932;-78
2021/03/08 03:35:56;;;;;;;;;;;;;;;5.04;37.34;101800.91;4835029;29;19932;-77
2021/03/08 03:38:23;;;;;;;;;;;;;;;5.03;37.74;101800.91;4854514;29;19928;-77
2021/03/08 03:40:51;;;;;;;;;;;;;;;5.01;37.75;101803.50;4853062;29;19969;-77
2021/03/08 03:43:19;;;;;;;;;;;;;;;4.99;37.64;101806.13;4860173;29;19936;-77
2021/03/08 03:45:46;;;;;;;;;;;;;;;4.97;37.20;101806.97;4860248;29;20361;-77
2021/03/08 03:48:13;;;;;;;;;;;;;;;4.96;37.11;101802.56;4842834;29;20328;-78
2021/03/08 03:50:40;;;;;;;;;;;;;;;4.95;37.59;101809.56;4858553;29;20016;-77
2021/03/08 03:53:07;;;;;;;;;;;;;;;4.91;37.29;101810.38;4855186;29;19987;-77
2021/03/08 03:55:37;;;;;;;;;;;;;;;4.93;37.29;101813.03;4849756;29;21357;-77
2021/03/08 03:58:10;;;;;;;;;;;;;;;4.91;37.73;101819.97;4843139;29;19936;-78
2021/03/08 04:00:42;;;;;;;;;;;;;;;4.88;37.21;101826.06;4860585;29;20051;-77
2021/03/08 04:03:10;;;;;;;;;;;;;;;4.86;37.12;101827.81;4860990;29;19968;-76
2021/03/08 04:05:38;;;;;;;;;;;;;;;4.84;37.32;101829.50;4860773;29;19927;-77
2021/03/08 04:08:05;;;;;;;;;;;;;;;4.82;37.51;101832.13;4856745;29;19932;-77
2021/03/08 04:10:32;;;;;;;;;;;;;;;4.79;37.53;101831.19;4839401;29;19939;-77
2021/03/08 04:13:00;;;;;;;;;;;;;;;4.78;37.66;101842.53;4861821;29;19971;-77
2021/03/08 04:15:29;;;;;;;;;;;;;;;4.73;37.07;101845.09;4855920;29;19940;-77
2021/03/08 04:17:57;;;;;;;;;;;;;;;4.74;37.01;101852.09;4859008;29;19966;-77
2021/03/08 04:20:26;;;;;;;;;;;;;;;4.72;37.25;101853.81;4842218;29;19961;-78
2021/03/08 04:22:54;;;;;;;;;;;;;;;4.72;37.65;101860.81;4854844;29;20420;-78
2021/03/08 04:25:20;;;;;;;;;;;;;;;4.71;37.30;101862.53;4859693;29;19929;-78
2021/03/08 04:27:48;;;;;;;;;;;;;;;4.70;37.33;101859.88;4843496;29;20007;-78
2021/03/08 04:30:15;;;;;;;;;;;;;;;4.72;37.00;101860.81;4859134;29;20004;-77
2021/03/08 04:32:44;;;;;;;;;;;;;;;4.73;37.10;101866.06;4842448;29;20415;-77
2021/03/08 04:35:11;;;;;;;;;;;;;;;4.75;37.14;101863.47;4852632;29;19933;-77
2021/03/08 04:37:39;;;;;;;;;;;;;;;4.76;36.72;101866.09;4834393;29;19936;-79
2021/03/08 04:40:07;;;;;;;;;;;;;;;4.78;37.00;101869.63;4858714;29;19932;-77
2021/03/08 04:42:34;;;;;;;;;;;;;;;4.81;37.21;101880.16;4847458;29;19932;-78
2021/03/08 04:45:01;;;;;;;;;;;;;;;4.82;36.92;101881.06;4839013;29;19980;-78
2021/03/08 04:47:29;;;;;;;;;;;;;;;4.84;37.06;101878.47;4850844;29;19936;-78
2021/03/08 04:49:57;;;;;;;;;;;;;;;4.85;36.61;101885.47;4857203;29;20027;-77
2021/03/08 04:52:24;;;;;;;;;;;;;;;4.82;36.94;101883.69;4857846;29;19940;-78
2021/03/08 04:54:52;;;;;;;;;;;;;;;4.81;37.09;101885.41;4859642;29;19975;-76
2021/03/08 04:57:20;;;;;;;;;;;;;;;4.82;36.47;101883.69;4860800;29;20015;-76
2021/03/08 04:59:47;;;;;;;;;;;;;;;4.80;37.00;101895.88;4863398;29;19928;-77
2021/03/08 05:02:23;;;;;;;;;;;;;;;4.81;37.06;101895.03;4861656;29;19932;-77
2021/03/08 05:04:52;;;;;;;;;;;;;;;4.79;36.86;101895.00;4844004;29;20516;-77
2021/03/08 05:07:21;;;;;;;;;;;;;;;4.79;36.72;101899.34;4843153;29;19955;-78
2021/03/08 05:09:49;;;;;;;;;;;;;;;4.76;36.35;101908.06;4861007;29;19991;-77
2021/03/08 05:12:17;;;;;;;;;;;;;;;4.76;36.42;101904.56;4862201;29;19928;-77
2021/03/08 05:14:45;;;;;;;;;;;;;;;4.73;36.67;101902.78;4860810;29;19940;-75
2021/03/08 05:17:14;;;;;;;;;;;;;;;4.72;36.66;101911.50;4856579;29;19996;-77
2021/03/08 05:19:43;;;;;;;;;;;;;;;4.70;37.02;101917.56;4859776;29;19928;-77
2021/03/08 05:22:11;;;;;;;;;;;;;;;4.70;36.37;101921.09;4856748;29;22668;-77
2021/03/08 05:24:39;;;;;;;;;;;;;;;4.68;36.34;101925.41;4844170;29;19944;-77
2021/03/08 05:27:08;;;;;;;;;;;;;;;4.65;36.48;101934.09;4862186;29;19928;-77
2021/03/08 05:29:37;;;;;;;;;;;;;;;4.64;37.09;101940.19;4845910;29;19935;-76
2021/03/08 05:32:06;;;;;;;;;;;;;;;4.63;36.37;101938.44;4861053;29;19935;-78
2021/03/08 05:34:34;;;;;;;;;;;;;;;4.61;36.46;101937.53;4853024;29;20066;-77
2021/03/08 05:37:02;;;;;;;;;;;;;;;4.60;36.59;101942.75;4847959;29;19937;-77
2021/03/08 05:39:29;;;;;;;;;;;;;;;4.60;36.73;101940.13;4861680;29;19936;-77
2021/03/08 05:42:02;;;;;;;;;;;;;;;4.58;36.39;101941.84;4861067;29;20026;-77
2021/03/08 05:44:31;;;;;;;;;;;;;;;4.58;36.45;101941.84;4861320;29;19935;-77
2021/03/08 05:47:14;;;;;;;;;;;;;;;4.58;36.63;101944.47;4855015;29;19932;-77
2021/03/08 05:49:57;;;;;;;;;;;;;;;4.60;36.22;101945.38;4839051;29;19960;-75
2021/03/08 05:52:43;;;;;;;;;;;;;;;4.61;36.29;101949.75;4859991;29;19965;-77
2021/03/08 05:55:31;;;;;;;;;;;;;;;4.66;36.45;101953.31;4849156;29;19936;-77
2021/03/08 05:58:14;;;;;;;;;;;;;;;4.69;36.76;101966.50;4862646;29;21282;-77
2021/03/08 06:00:48;;;;;;;;;;;;;;;4.75;36.26;101958.72;4863038;29;19932;-76
2021/03/08 06:03:37;;;;;;;;;;;;;;;4.77;36.17;101967.50;4852639;29;19943;-77
2021/03/08 06:06:34;;;;;;;;;;;;;;;4.80;36.45;101967.53;4859796;29;19966;-76
2021/03/08 06:09:21;;;;;;;;;;;;;;;4.86;36.15;101968.50;4859765;29;19961;-77
2021/03/08 06:11:58;;;;;;;;;;;;;;;4.88;36.24;101980.78;4858579;29;19932;-77
2021/03/08 06:14:32;;;;;;;;;;;;;;;4.90;36.21;101976.44;4858830;29;19936;-77
2021/03/08 06:17:00;;;;;;;;;;;;;;;4.93;36.10;101980.88;4854101;29;20527;-77
2021/03/08 06:19:30;;;;;;;;;;;;;;;4.97;36.07;101978.28;4855436;29;19932;-75
2021/03/08 06:21:57;;;;;;;;;;;;;;;5.03;35.71;101984.50;4843426;29;19932;-74
2021/03/08 06:24:24;;;;;;;;;;;;;;;5.10;35.41;101992.47;4861346;29;19936;-76
2021/03/08 06:26:52;;;;;;;;;;;;;;;5.23;35.47;101993.56;4854956;29;19932;-75
2021/03/08 06:29:20;;;;;;;;;;;;;;;5.31;35.01;101986.66;4851668;29;20385;-77
2021/03/08 06:31:48;;;;;;;;;;;;;;;5.51;34.99;101999.19;4837161;29;19979;-76
2021/03/08 06:34:15;;;;;;;;;;;;;;;5.62;34.85;101999.31;4853767;29;20886;-76
2021/03/08 06:36:43;;;;;;;;;;;;;;;5.74;34.32;102010.00;4847553;29;19936;-76
2021/03/08 06:39:10;;;;;;;;;;;;;;;5.83;34.33;102011.88;4859852;29;20050;-75
2021/03/08 06:41:37;;;;;;;;;;;;;;;5.93;34.40;102008.47;4840873;29;19932;-75
2021/03/08 06:44:04;;;;;;;;;;;;;;;6.09;34.03;102016.56;4855315;29;20027;-76
2021/03/08 06:46:31;;;;;;;;;;;;;;;6.25;33.76;102015.00;4842651;29;19964;-77
2021/03/08 06:49:02;;;;;;;;;;;;;;;6.31;33.67;102012.44;4856427;29;19958;-77
2021/03/08 06:51:30;;;;;;;;;;;;;;;6.47;33.49;102018.72;4846147;29;19932;-77
2021/03/08 06:53:56;;;;;;;;;;;;;;;6.64;33.32;102021.53;4842463;29;19984;-77
2021/03/08 06:56:27;;;;;;;;;;;;;;;6.75;33.17;102026.88;4861180;29;19963;-77
2021/03/08 06:59:42;;;;;;;;;;;;;;;6.86;33.11;102033.13;4853509;29;19931;-80
2021/03/08 07:03:06;;;;;;;;;;;;;;;6.96;33.10;102032.34;4779450;29;19933;-79
2021/03/08 07:13:03;;;;;;;;;;;;;;;7.20;32.92;102038.66;4801837;29;19925;-77
2021/03/08 07:15:57;;;;;;;;;;;;;;;7.18;32.99;102043.00;4801833;29;20017;-77
2021/03/08 07:19:10;;;;;;;;;;;;;;;7.20;33.03;102041.28;4744365;29;19955;-78
2021/03/08 07:24:57;;;;;;;;;;;;;;;7.29;32.98;102051.88;4804044;29;19988;-76
2021/03/08 07:27:38;;;;;;;;;;;;;;;7.31;33.17;102041.34;4798135;29;20075;-77
2021/03/08 07:30:07;;;;;;;;;;;;;;;7.36;33.09;102050.16;4800371;29;20558;-78
2021/03/08 07:32:37;;;;;;;;;;;;;;;7.39;33.10;102050.16;4787585;29;20659;-78
2021/03/08 07:35:05;;;;;;;;;;;;;;;7.53;32.92;102058.19;4792242;29;19929;-77
2021/03/08 07:37:42;;;;;;;;;;;;;;;7.73;32.35;102050.38;4786779;29;19968;-76
2021/03/08 07:40:12;;;;;;;;;;;;;;;8.04;31.96;102062.84;4828259;29;19935;-77
2021/03/08 07:42:42;;;;;;;;;;;;;;;8.42;31.43;102062.09;4850627;29;20381;-78
2021/03/08 07:45:11;;;;;;;;;;;;;;;8.70;30.90;102062.19;4852059;29;20605;-76
2021/03/08 07:47:37;;;;;;;;;;;;;;;8.94;31.15;102062.19;4837369;29;19939;-77
2021/03/08 07:50:23;;;;;;;;;;;;;;;9.11;30.21;102067.47;4823322;29;19936;-76
2021/03/08 07:52:50;;;;;;;;;;;;;;;9.23;30.36;102057.78;4821466;29;19936;-74
2021/03/08 07:55:17;;;;;;;;;;;;;;;9.39;30.17;102053.34;4842626;29;20492;-73
2021/03/08 07:57:44;;;;;;;;;;;;;;;9.59;29.94;102062.13;4854298;29;19932;-75
2021/03/08 08:00:13;;;;;;;;;;;;;;;9.66;30.10;102064.75;4856886;29;19932;-78
2021/03/08 08:02:40;;;;;;;;;;;;;;;9.77;30.04;102065.59;4854285;29;20046;-76
2021/03/08 08:05:07;;;;;;;;;;;;;;;9.87;30.30;102058.53;4861042;29;19928;-75
2021/03/08 08:07:39;;;;;;;;;;;;;;;10.05;29.46;102060.22;4856140;29;19959;-75
2021/03/08 08:10:06;;;;;;;;;;;;;;;10.28;29.17;102065.38;4839165;29;20051;-76
2021/03/08 08:12:34;;;;;;;;;;;;;;;10.61;29.12;102063.47;4851310;29;19932;-76
2021/03/08 08:15:02;;;;;;;;;;;;;;;10.75;28.83;102068.69;4859677;29;20385;-77
2021/03/08 08:17:33;;;;;;;;;;;;;;;10.91;28.85;102072.09;4857083;29;19939;-76
2021/03/08 08:20:03;;;;;;;;;;;;;;;11.11;28.80;102074.59;4853822;29;19928;-77
2021/03/08 08:22:32;;;;;;;;;;;;;;;11.33;28.34;102067.31;4860282;29;19936;-76
2021/03/08 08:25:01;;;;;;;;;;;;;;;11.61;28.00;102075.00;4852091;29;19984;-77
2021/03/08 08:27:28;;;;;;;;;;;;;;;11.85;27.86;102068.53;4858870;29;19963;-76
2021/03/08 08:29:59;;;;;;;;;;;;;;;12.21;27.42;102069.03;4846552;29;20019;-75
2021/03/08 08:32:25;;;;;;;;;;;;;;;12.57;27.15;102066.75;4860970;29;19960;-77
2021/03/08 08:34:54;;;;;;;;;;;;;;;12.92;26.78;102064.44;4862665;29;19953;-75
2021/03/08 08:37:21;;;;;;;;;;;;;;;13.32;26.13;102069.09;4862247;29;19989;-75
2021/03/08 08:40:03;;;;;;;;;;;;;;;13.59;25.74;102065.09;4844092;29;20305;-76
2021/03/08 08:42:30;;;;;;;;;;;;;;;13.84;25.81;102066.38;4862333;29;19963;-77
2021/03/08 08:44:58;;;;;;;;;;;;;;;14.14;25.74;102069.31;4862932;29;20003;-76
2021/03/08 08:47:29;;;;;;;;;;;;;;;14.71;25.20;102068.09;4860885;29;20488;-75
2021/03/08 08:49:58;;;;;;;;;;;;;;;15.17;24.72;102066.94;4862507;29;19938;-75
2021/03/08 08:52:44;;;;;;;;;;;;;;;15.60;24.10;102056.91;4857646;29;19957;-74
2021/03/08 08:55:11;;;;;;;;;;;;;;;16.18;23.49;102058.84;4852700;29;19982;-73
2021/03/08 08:57:38;;;;;;;;;;;;;;;16.55;23.29;102074.63;4860684;29;20641;-73
2021/03/08 09:00:16;;;;;;;;;;;;;;;17.00;22.88;102075.00;4845358;29;19932;-74
2021/03/08 09:02:43;;;;;;;;;;;;;;;17.48;22.48;102060.88;4859331;29;19957;-76
2021/03/08 09:05:29;;;;;;;;;;;;;;;17.94;22.18;102063.72;4844243;29;19944;-75
2021/03/08 09:08:11;;;;;;;;;;;;;;;18.54;21.54;102061.38;4855541;29;19965;-74
2021/03/08 09:10:39;;;;;;;;;;;;;;;18.97;21.48;102065.94;4841741;29;20900;-75
2021/03/08 09:13:10;;;;;;;;;;;;;;;19.48;20.88;102061.94;4813553;29;20429;-76
2021/03/08 09:15:36;;;;;;;;;;;;;;;19.95;20.40;102071.53;4838290;29;20957;-77
2021/03/08 09:18:04;;;;;;;;;;;;;;;20.47;20.11;102070.00;4858779;29;19939;-76
2021/03/08 09:20:32;;;;;;;;;;;;;;;21.13;19.55;102071.25;4836886;29;20424;-78
2021/03/08 09:23:01;;;;;;;;;;;;;;;22.95;17.42;102049.69;4859390;29;19935;-78
2021/03/08 09:25:28;;;;;;;;;;;;;;;27.08;13.47;102022.69;4859109;29;19932;-79
2021/03/08 09:28:13;;;;;;;;;;;;;;;28.54;12.17;102017.34;4860353;29;19935;-78
2021/03/08 09:30:43;;;;;;;;;;;;;;;29.40;11.69;102021.91;4859289;29;19935;-78
2021/03/08 09:33:11;;;;;;;;;;;;;;;29.87;11.22;102021.44;4850025;29;19957;-77
2021/03/08 09:35:39;;;;;;;;;;;;;;;30.46;10.91;102030.63;4848769;29;19932;-78
2021/03/08 09:38:07;;;;;;;;;;;;;;;30.94;10.55;102034.34;4853930;29;19936;-77
2021/03/08 09:40:36;;;;;;;;;;;;;;;31.29;9.99;102035.63;4859106;29;19932;-78
2021/03/08 09:43:16;;;;;;;;;;;;;;;31.59;10.22;102039.16;4837570;29;19938;-79
2021/03/08 09:45:44;;;;;;;;;;;;;;;31.82;9.84;102039.63;4857928;29;19928;-78
2021/03/08 09:48:13;;;;;;;;;;;;;;;32.31;9.64;102053.09;4846900;29;19994;-77
2021/03/08 09:50:40;;;;;;;;;;;;;;;32.94;9.37;102051.34;4840807;29;20436;-78
2021/03/08 09:53:07;;;;;;;;;;;;;;;33.15;9.33;102055.59;4841981;29;19932;-77
2021/03/08 09:55:35;;;;;;;;;;;;;;;33.55;9.09;102059.66;4858802;29;20294;-77
2021/03/08 09:58:17;;;;;;;;;;;;;;;33.65;9.00;102065.91;4855010;29;19932;-78
2021/03/08 10:00:45;;;;;;;;;;;;;;;34.19;8.96;102062.03;4855323;29;19932;-78
2021/03/08 10:03:12;;;;;;;;;;;;;;;34.12;8.81;102069.22;4845619;29;19928;-77
2021/03/08 10:05:41;;;;;;;;;;;;;;;34.61;8.80;102061.13;4850088;29;20666;-78
2021/03/08 10:08:09;;;;;;;;;;;;;;;35.20;8.16;102069.22;4841307;29;19943;-77
2021/03/08 10:10:37;;;;;;;;;;;;;;;35.57;8.06;102069.72;4832760;29;19932;-79
2021/03/08 10:13:03;;;;;;;;;;;;;;;35.33;8.15;102067.81;4833694;29;20468;-78
2021/03/08 10:15:37;;;;;;;;;;;;;;;35.17;8.25;102066.84;4857419;29;19943;-77
2021/03/08 10:18:05;;;;;;;;;;;;;;;33.30;9.99;102075.09;4855302;29;19948;-77
2021/03/08 10:20:33;;;;;;;;;;;;;;;32.08;10.76;102079.97;4855727;29;19932;-76
2021/03/08 10:23:02;;;;;;;;;;;;;;;31.94;11.23;102075.91;4854464;29;19936;-77
2021/03/08 10:25:30;;;;;;;;;;;;;;;30.87;12.25;102077.78;4854321;29;19939;-77
2021/03/08 10:27:57;;;;;;;;;;;;;;;31.18;11.60;102072.19;4848928;29;20055;-77
2021/03/08 10:30:26;;;;;;;;;;;;;;;29.58;13.54;102077.50;4837195;29;19929;-77
2021/03/08 10:32:54;;;;;;;;;;;;;;;28.31;14.47;102071.84;4836158;29;19932;-77
2021/03/08 10:35:25;;;;;;;;;;;;;;;27.46;15.45;102084.03;4856057;29;19938;-76
2021/03/08 10:37:52;;;;;;;;;;;;;;;27.30;15.70;102081.63;4856887;29;20442;-77
2021/03/08 10:40:21;;;;;;;;;;;;;;;27.37;15.63;102089.28;4847581;29;19928;-77
2021/03/08 10:42:48;;;;;;;;;;;;;;;28.26;14.64;102076.81;4856756;29;20420;-76
2021/03/08 10:45:16;;;;;;;;;;;;;;;28.88;13.84;102082.59;4837561;29;19936;-78
2021/03/08 10:47:43;;;;;;;;;;;;;;;28.15;14.72;102087.69;4840302;29;20064;-77
2021/03/08 10:50:10;;;;;;;;;;;;;;;27.35;15.74;102083.97;4842381;29;19996;-75
2021/03/08 10:53:00;;;;;;;;;;;;;;;27.80;15.37;102086.81;4839370;29;19955;-76
2021/03/08 10:55:31;;;;;;;;;;;;;;;28.78;14.28;102087.94;4839459;29;19971;-75
2021/03/08 10:57:59;;;;;;;;;;;;;;;28.74;14.46;102089.19;4860036;29;19939;-75
2021/03/08 11:00:25;;;;;;;;;;;;;;;28.04;14.95;102083.13;4854946;29;20003;-75
2021/03/08 11:03:01;;;;;;;;;;;;;;;27.72;15.43;102091.13;4836043;29;20770;-75
2021/03/08 11:10:12;;;;;;;;;;;;;;;28.49;14.61;102090.34;4788080;29;19963;-77
2021/03/08 11:29:25;;;;;;;;;;;;;;;30.76;12.77;102087.00;4721196;30;20013;-79
2021/03/08 11:47:22;;;;;;;;;;;;;;;29.60;13.83;102091.00;4627424;30;19936;-78
2021/03/08 12:56:55;;;;;;;;;;;;;;;27.85;7.91;102050.22;4818384;29;19935;-75
2021/03/08 12:59:43;;;;;;;;;;;;;;;27.87;8.20;102045.50;4841888;29;19985;-76
2021/03/08 14:44:43;;;;;;;;;;;;;;;22.12;13.07;102007.66;4942037;24;19939;-77
2021/03/08 14:47:10;;;;;;;;;;;;;;;21.47;13.36;102008.50;4843302;29;19946;-78
2021/03/08 14:49:37;;;;;;;;;;;;;;;21.01;13.58;102011.78;4839883;29;19975;-77
2021/03/08 14:52:04;;;;;;;;;;;;;;;19.64;14.65;102004.91;4851040;29;19931;-78
2021/03/08 14:54:32;;;;;;;;;;;;;;;19.10;14.64;102004.63;4847229;29;20926;-77
2021/03/08 14:56:59;;;;;;;;;;;;;;;18.52;14.88;102008.78;4849473;29;19967;-77
2021/03/08 14:59:27;;;;;;;;;;;;;;;18.71;14.10;102008.88;4844686;29;19936;-77
2021/03/08 15:01:55;;;;;;;;;;;;;;;19.01;14.91;102000.53;4844776;29;19932;-78
2021/03/08 15:04:22;;;;;;;;;;;;;;;17.63;16.75;102005.94;4820304;29;19969;-77
2021/03/08 15:06:49;;;;;;;;;;;;;;;18.13;16.62;102001.41;4849969;29;20302;-77
2021/03/08 15:09:18;;;;;;;;;;;;;;;17.58;17.28;102008.78;4845186;29;20309;-76
2021/03/08 15:11:45;;;;;;;;;;;;;;;17.25;17.07;102006.38;4841848;29;19932;-76
2021/03/08 15:14:12;;;;;;;;;;;;;;;16.88;16.84;102007.63;4844411;29;19940;-77
2021/03/08 15:17:04;;;;;;;;;;;;;;;17.41;17.14;102009.41;4834717;29;20626;-77
2021/03/08 15:19:34;;;;;;;;;;;;;;;16.98;17.97;102007.34;4850651;29;19932;-77
2021/03/08 15:22:09;;;;;;;;;;;;;;;17.13;17.79;102000.63;4849255;29;19942;-78
2021/03/08 15:24:37;;;;;;;;;;;;;;;16.84;18.27;102000.66;4849907;29;20012;-77
2021/03/08 15:27:05;;;;;;;;;;;;;;;16.86;18.54;101996.16;4853094;29;19932;-77
2021/03/08 15:29:32;;;;;;;;;;;;;;;16.34;19.38;102004.06;4835801;29;19940;-76
2021/03/08 15:31:59;;;;;;;;;;;;;;;16.58;19.15;101996.19;4842511;29;19932;-80
2021/03/08 15:34:26;;;;;;;;;;;;;;;16.30;19.50;101996.19;4843339;29;19932;-78
2021/03/08 15:36:54;;;;;;;;;;;;;;;16.34;19.55;101992.53;4831917;29;19936;-76
2021/03/08 15:39:21;;;;;;;;;;;;;;;16.31;19.78;101996.16;4847385;29;21799;-77
2021/03/08 15:41:48;;;;;;;;;;;;;;;15.51;20.74;101982.47;4847741;29;19938;-76
2021/03/08 15:44:17;;;;;;;;;;;;;;;15.15;21.30;101993.25;4845400;29;20059;-75
2021/03/08 15:46:44;;;;;;;;;;;;;;;15.28;21.09;101997.34;4842672;29;19932;-75
2021/03/08 15:49:32;;;;;;;;;;;;;;;14.62;22.40;101994.56;4848048;29;20374;-77
2021/03/08 15:52:00;;;;;;;;;;;;;;;14.51;22.50;101994.84;4842353;29;19932;-77
2021/03/08 15:54:27;;;;;;;;;;;;;;;14.10;23.01;101996.66;4848330;29;20542;-76
2021/03/08 15:56:54;;;;;;;;;;;;;;;13.67;23.92;101997.56;4825910;29;19959;-77
2021/03/08 15:59:21;;;;;;;;;;;;;;;13.19;24.30;102003.78;4839271;29;19979;-75
2021/03/08 16:01:47;;;;;;;;;;;;;;;12.72;25.21;101995.72;4845990;29;19988;-75
2021/03/08 16:04:14;;;;;;;;;;;;;;;12.56;25.32;101995.97;4847230;29;19932;-76
2021/03/08 16:06:45;;;;;;;;;;;;;;;12.35;25.77;102004.28;4840775;29;19955;-75
2021/03/08 16:09:12;;;;;;;;;;;;;;;12.14;26.39;102002.81;4843277;29;19938;-76
2021/03/08 17:21:35;;;;;;;;;;;;;;;6.73;37.06;102021.59;5325105;23;20484;-75
2021/03/08 17:24:04;;;;;;;;;;;;;;;7.18;36.55;102021.94;4821056;29;19940;-74
2021/03/08 17:26:41;;;;;;;;;;;;;;;7.29;36.21;102012.38;4858609;23;19932;-78
2021/03/08 17:30:30;;;;;;;;;;;;;;;;;;;;;
2021/03/08 18:00:01;;;;;;;;;;;;;;;9.62;34.97;102011.91;4829582;29;19982;-73
2021/03/08 18:02:35;;;;;;;;;;;;;;;9.70;34.80;102016.31;4824504;29;19940;-73
2021/03/08 18:05:03;;;;;;;;;;;;;;;9.69;35.25;102025.09;4814179;29;19980;-73
2021/03/08 19:08:30;;;;;;;;;;;;;;;9.42;34.85;102038.38;4696185;23;20016;-79
2021/03/08 19:11:56;;;;;;;;;;;;;;;9.38;34.50;102033.13;4862976;29;20063;-78
2021/03/08 19:25:41;;;;;;;;;;;;;;;9.19;35.22;102040.19;4863974;29;19935;-76
2021/03/08 20:37:34;;;;;;;;;;;;;;;;;;;;;
2021/03/08 20:41:13;;;;;;;;;;;;;;;8.40;36.12;102046.25;4714558;30;19978;-79